sensor_id;sensor_type;location;lat;lon;timestamp;temperature;humidity
49579;DHT22;35483;50.828;3.228;2024-02-28T00:00:39;5.40;99.90
49579;DHT22;35483;50.828;3.228;2024-02-28T00:03:06;5.30;99.90
49579;DHT22;35483;50.828;3.228;2024-02-28T00:05:32;5.30;99.90
49579;DHT22;35483;50.828;3.228;2024-02-28T00:07:57;5.30;99.90
49579;DHT22;35483;50.828;3.228;2024-02-28T00:10:23;5.30;99.90
49579;DHT22;35483;50.828;3.228;2024-02-28T00:12:49;5.30;99.90
49579;DHT22;35483;50.828;3.228;2024-02-28T00:15:14;5.20;99.90
49579;DHT22;35483;50.828;3.228;2024-02-28T00:17:41;5.30;99.90
49579;DHT22;35483;50.828;3.228;2024-02-28T00:20:08;5.20;99.90
49579;DHT22;35483;50.828;3.228;2024-02-28T00:22:38;5.30;99.90
49579;DHT22;35483;50.828;3.228;2024-02-28T00:25:04;5.20;99.90
49579;DHT22;35483;50.828;3.228;2024-02-28T00:27:32;5.20;99.90
49579;DHT22;35483;50.828;3.228;2024-02-28T00:29:59;5.20;99.90
49579;DHT22;35483;50.828;3.228;2024-02-28T00:32:24;5.10;99.90
49579;DHT22;35483;50.828;3.228;2024-02-28T00:34:50;5.10;99.90
49579;DHT22;35483;50.828;3.228;2024-02-28T00:37:16;5.10;99.90
49579;DHT22;35483;50.828;3.228;2024-02-28T00:39:44;5.10;99.90
49579;DHT22;35483;50.828;3.228;2024-02-28T00:42:10;5.10;99.90
49579;DHT22;35483;50.828;3.228;2024-02-28T00:44:35;5.10;99.90
49579;DHT22;35483;50.828;3.228;2024-02-28T00:47:01;5.10;99.90
49579;DHT22;35483;50.828;3.228;2024-02-28T00:49:27;5.10;99.90
49579;DHT22;35483;50.828;3.228;2024-02-28T00:51:52;5.00;99.90
49579;DHT22;35483;50.828;3.228;2024-02-28T00:54:18;5.00;99.90
49579;DHT22;35483;50.828;3.228;2024-02-28T00:56:44;5.00;99.90
49579;DHT22;35483;50.828;3.228;2024-02-28T00:59:09;5.00;99.90
49579;DHT22;35483;50.828;3.228;2024-02-28T01:01:40;5.00;99.90
49579;DHT22;35483;50.828;3.228;2024-02-28T01:04:05;4.90;99.90
49579;DHT22;35483;50.828;3.228;2024-02-28T01:06:31;4.90;99.90
49579;DHT22;35483;50.828;3.228;2024-02-28T01:08:57;4.90;99.90
49579;DHT22;35483;50.828;3.228;2024-02-28T01:11:23;4.90;99.90
49579;DHT22;35483;50.828;3.228;2024-02-28T01:13:48;4.90;99.90
49579;DHT22;35483;50.828;3.228;2024-02-28T01:16:14;4.90;99.90
49579;DHT22;35483;50.828;3.228;2024-02-28T01:18:40;4.90;99.90
49579;DHT22;35483;50.828;3.228;2024-02-28T01:21:05;4.80;99.90
49579;DHT22;35483;50.828;3.228;2024-02-28T01:23:31;4.80;99.90
49579;DHT22;35483;50.828;3.228;2024-02-28T01:25:57;4.80;99.90
49579;DHT22;35483;50.828;3.228;2024-02-28T01:28:22;4.80;99.90
49579;DHT22;35483;50.828;3.228;2024-02-28T01:30:48;4.80;99.90
49579;DHT22;35483;50.828;3.228;2024-02-28T01:33:14;4.80;99.90
49579;DHT22;35483;50.828;3.228;2024-02-28T01:35:40;4.90;99.90
49579;DHT22;35483;50.828;3.228;2024-02-28T01:38:06;4.90;99.90
49579;DHT22;35483;50.828;3.228;2024-02-28T01:40:31;4.90;99.90
49579;DHT22;35483;50.828;3.228;2024-02-28T01:43:06;4.90;99.90
49579;DHT22;35483;50.828;3.228;2024-02-28T01:45:32;4.90;99.90
49579;DHT22;35483;50.828;3.228;2024-02-28T01:47:58;4.90;99.90
49579;DHT22;35483;50.828;3.228;2024-02-28T01:50:24;4.90;99.90
49579;DHT22;35483;50.828;3.228;2024-02-28T01:52:50;4.90;99.90
49579;DHT22;35483;50.828;3.228;2024-02-28T01:55:16;4.90;99.90
49579;DHT22;35483;50.828;3.228;2024-02-28T01:57:42;4.90;99.90
49579;DHT22;35483;50.828;3.228;2024-02-28T02:00:08;4.90;99.90
49579;DHT22;35483;50.828;3.228;2024-02-28T02:02:34;4.80;99.90
49579;DHT22;35483;50.828;3.228;2024-02-28T02:05:00;4.80;99.90
49579;DHT22;35483;50.828;3.228;2024-02-28T02:07:27;4.80;99.90
49579;DHT22;35483;50.828;3.228;2024-02-28T02:09:52;4.80;99.90
49579;DHT22;35483;50.828;3.228;2024-02-28T02:12:18;4.80;99.90
49579;DHT22;35483;50.828;3.228;2024-02-28T02:14:48;4.80;99.90
49579;DHT22;35483;50.828;3.228;2024-02-28T02:17:14;4.80;99.90
49579;DHT22;35483;50.828;3.228;2024-02-28T02:19:40;4.90;99.90
49579;DHT22;35483;50.828;3.228;2024-02-28T02:22:08;4.90;99.90
49579;DHT22;35483;50.828;3.228;2024-02-28T02:24:34;4.90;99.90
49579;DHT22;35483;50.828;3.228;2024-02-28T02:27:01;5.00;99.90
49579;DHT22;35483;50.828;3.228;2024-02-28T02:29:28;5.10;99.90
49579;DHT22;35483;50.828;3.228;2024-02-28T02:31:54;5.10;99.90
49579;DHT22;35483;50.828;3.228;2024-02-28T02:34:20;5.20;99.90
49579;DHT22;35483;50.828;3.228;2024-02-28T02:36:45;5.30;99.90
49579;DHT22;35483;50.828;3.228;2024-02-28T02:39:11;5.40;99.90
49579;DHT22;35483;50.828;3.228;2024-02-28T02:41:37;5.50;99.90
49579;DHT22;35483;50.828;3.228;2024-02-28T02:44:02;5.60;99.90
49579;DHT22;35483;50.828;3.228;2024-02-28T02:46:28;5.70;99.90
49579;DHT22;35483;50.828;3.228;2024-02-28T02:48:54;5.90;99.90
49579;DHT22;35483;50.828;3.228;2024-02-28T02:51:20;6.00;99.90
49579;DHT22;35483;50.828;3.228;2024-02-28T02:53:45;6.10;99.90
49579;DHT22;35483;50.828;3.228;2024-02-28T02:56:11;6.10;99.90
49579;DHT22;35483;50.828;3.228;2024-02-28T02:58:36;6.20;99.90
49579;DHT22;35483;50.828;3.228;2024-02-28T03:01:02;6.20;99.90
49579;DHT22;35483;50.828;3.228;2024-02-28T03:03:28;6.30;99.90
49579;DHT22;35483;50.828;3.228;2024-02-28T03:05:54;6.30;99.90
49579;DHT22;35483;50.828;3.228;2024-02-28T03:08:20;6.40;99.90
49579;DHT22;35483;50.828;3.228;2024-02-28T03:10:46;6.50;99.90
49579;DHT22;35483;50.828;3.228;2024-02-28T03:13:11;6.50;99.90
49579;DHT22;35483;50.828;3.228;2024-02-28T03:15:37;6.50;99.90
49579;DHT22;35483;50.828;3.228;2024-02-28T03:18:03;6.50;99.90
49579;DHT22;35483;50.828;3.228;2024-02-28T03:20:29;6.60;99.90
49579;DHT22;35483;50.828;3.228;2024-02-28T03:22:54;6.60;99.90
49579;DHT22;35483;50.828;3.228;2024-02-28T03:25:20;6.60;99.90
49579;DHT22;35483;50.828;3.228;2024-02-28T03:27:46;6.70;99.90
49579;DHT22;35483;50.828;3.228;2024-02-28T03:30:11;6.70;99.90
49579;DHT22;35483;50.828;3.228;2024-02-28T03:32:37;6.70;99.90
49579;DHT22;35483;50.828;3.228;2024-02-28T03:35:03;6.80;99.90
49579;DHT22;35483;50.828;3.228;2024-02-28T03:37:31;6.80;99.90
49579;DHT22;35483;50.828;3.228;2024-02-28T03:39:57;6.90;99.90
49579;DHT22;35483;50.828;3.228;2024-02-28T03:42:22;6.90;99.90
49579;DHT22;35483;50.828;3.228;2024-02-28T03:44:48;6.90;99.90
49579;DHT22;35483;50.828;3.228;2024-02-28T03:47:14;6.90;99.90
49579;DHT22;35483;50.828;3.228;2024-02-28T03:49:40;6.90;99.90
49579;DHT22;35483;50.828;3.228;2024-02-28T03:52:05;6.90;99.90
49579;DHT22;35483;50.828;3.228;2024-02-28T03:54:32;7.00;99.90
49579;DHT22;35483;50.828;3.228;2024-02-28T03:56:57;7.00;99.90
49579;DHT22;35483;50.828;3.228;2024-02-28T03:59:25;7.10;99.90
49579;DHT22;35483;50.828;3.228;2024-02-28T04:01:50;7.10;99.90
49579;DHT22;35483;50.828;3.228;2024-02-28T04:04:16;7.10;99.90
49579;DHT22;35483;50.828;3.228;2024-02-28T04:06:42;7.10;99.90
49579;DHT22;35483;50.828;3.228;2024-02-28T04:09:07;7.10;99.90
49579;DHT22;35483;50.828;3.228;2024-02-28T04:11:33;7.10;99.90
49579;DHT22;35483;50.828;3.228;2024-02-28T04:13:59;7.10;99.90
49579;DHT22;35483;50.828;3.228;2024-02-28T04:16:26;7.20;99.90
49579;DHT22;35483;50.828;3.228;2024-02-28T04:18:51;7.20;99.90
49579;DHT22;35483;50.828;3.228;2024-02-28T04:21:17;7.20;99.90
49579;DHT22;35483;50.828;3.228;2024-02-28T04:23:43;7.30;99.90
49579;DHT22;35483;50.828;3.228;2024-02-28T04:26:09;7.30;99.90
49579;DHT22;35483;50.828;3.228;2024-02-28T04:28:36;7.40;99.90
49579;DHT22;35483;50.828;3.228;2024-02-28T04:31:02;7.40;99.90
49579;DHT22;35483;50.828;3.228;2024-02-28T04:33:27;7.40;99.90
49579;DHT22;35483;50.828;3.228;2024-02-28T04:35:53;7.40;99.90
49579;DHT22;35483;50.828;3.228;2024-02-28T04:38:19;7.40;99.90
49579;DHT22;35483;50.828;3.228;2024-02-28T04:40:44;7.40;99.90
49579;DHT22;35483;50.828;3.228;2024-02-28T04:43:10;7.40;99.90
49579;DHT22;35483;50.828;3.228;2024-02-28T04:45:36;7.40;99.90
49579;DHT22;35483;50.828;3.228;2024-02-28T04:48:01;7.50;99.90
49579;DHT22;35483;50.828;3.228;2024-02-28T04:50:27;7.50;99.90
49579;DHT22;35483;50.828;3.228;2024-02-28T04:52:53;7.50;99.90
49579;DHT22;35483;50.828;3.228;2024-02-28T04:55:18;7.50;99.90
49579;DHT22;35483;50.828;3.228;2024-02-28T04:57:44;7.50;99.90
49579;DHT22;35483;50.828;3.228;2024-02-28T05:00:10;7.50;99.90
49579;DHT22;35483;50.828;3.228;2024-02-28T05:02:36;7.50;99.90
49579;DHT22;35483;50.828;3.228;2024-02-28T05:05:02;7.50;99.90
49579;DHT22;35483;50.828;3.228;2024-02-28T05:07:28;7.60;99.90
49579;DHT22;35483;50.828;3.228;2024-02-28T05:09:53;7.60;99.90
49579;DHT22;35483;50.828;3.228;2024-02-28T05:12:19;7.60;99.90
49579;DHT22;35483;50.828;3.228;2024-02-28T05:14:45;7.60;99.90
49579;DHT22;35483;50.828;3.228;2024-02-28T05:17:10;7.60;99.90
49579;DHT22;35483;50.828;3.228;2024-02-28T05:19:36;7.60;99.90
49579;DHT22;35483;50.828;3.228;2024-02-28T05:22:02;7.60;99.90
49579;DHT22;35483;50.828;3.228;2024-02-28T05:24:29;7.70;99.90
49579;DHT22;35483;50.828;3.228;2024-02-28T05:26:55;7.70;99.90
49579;DHT22;35483;50.828;3.228;2024-02-28T05:29:20;7.70;99.90
49579;DHT22;35483;50.828;3.228;2024-02-28T05:31:46;7.70;99.90
49579;DHT22;35483;50.828;3.228;2024-02-28T05:34:12;7.70;99.90
49579;DHT22;35483;50.828;3.228;2024-02-28T05:36:37;7.70;99.90
49579;DHT22;35483;50.828;3.228;2024-02-28T05:39:03;7.80;99.90
49579;DHT22;35483;50.828;3.228;2024-02-28T05:41:31;7.80;99.90
49579;DHT22;35483;50.828;3.228;2024-02-28T05:43:56;7.80;99.90
49579;DHT22;35483;50.828;3.228;2024-02-28T05:46:22;7.80;99.90
49579;DHT22;35483;50.828;3.228;2024-02-28T05:48:48;7.80;99.90
49579;DHT22;35483;50.828;3.228;2024-02-28T05:51:14;7.80;99.90
49579;DHT22;35483;50.828;3.228;2024-02-28T05:53:43;7.80;99.90
49579;DHT22;35483;50.828;3.228;2024-02-28T05:56:09;7.80;99.90
49579;DHT22;35483;50.828;3.228;2024-02-28T05:58:43;7.80;99.90
49579;DHT22;35483;50.828;3.228;2024-02-28T06:01:10;7.80;99.90
49579;DHT22;35483;50.828;3.228;2024-02-28T06:03:39;7.80;99.90
49579;DHT22;35483;50.828;3.228;2024-02-28T06:06:05;7.80;99.90
49579;DHT22;35483;50.828;3.228;2024-02-28T06:08:38;7.90;99.90
49579;DHT22;35483;50.828;3.228;2024-02-28T06:11:04;7.90;99.90
49579;DHT22;35483;50.828;3.228;2024-02-28T06:13:31;7.90;99.90
49579;DHT22;35483;50.828;3.228;2024-02-28T06:15:57;7.90;99.90
49579;DHT22;35483;50.828;3.228;2024-02-28T06:18:23;7.90;99.90
49579;DHT22;35483;50.828;3.228;2024-02-28T06:20:52;7.90;99.90
49579;DHT22;35483;50.828;3.228;2024-02-28T06:23:18;8.00;99.90
49579;DHT22;35483;50.828;3.228;2024-02-28T06:25:44;8.00;99.90
49579;DHT22;35483;50.828;3.228;2024-02-28T06:28:10;8.00;99.90
49579;DHT22;35483;50.828;3.228;2024-02-28T06:30:35;8.00;99.90
49579;DHT22;35483;50.828;3.228;2024-02-28T06:33:01;8.00;99.90
49579;DHT22;35483;50.828;3.228;2024-02-28T06:35:27;8.00;99.90
49579;DHT22;35483;50.828;3.228;2024-02-28T06:37:53;8.10;99.90
49579;DHT22;35483;50.828;3.228;2024-02-28T06:40:20;8.10;99.90
49579;DHT22;35483;50.828;3.228;2024-02-28T06:42:45;8.20;99.90
49579;DHT22;35483;50.828;3.228;2024-02-28T06:45:11;8.20;99.90
49579;DHT22;35483;50.828;3.228;2024-02-28T06:47:37;8.20;99.90
49579;DHT22;35483;50.828;3.228;2024-02-28T06:50:03;8.20;99.90
49579;DHT22;35483;50.828;3.228;2024-02-28T06:52:30;8.20;99.90
49579;DHT22;35483;50.828;3.228;2024-02-28T06:54:55;8.20;99.90
49579;DHT22;35483;50.828;3.228;2024-02-28T06:57:21;8.30;99.90
49579;DHT22;35483;50.828;3.228;2024-02-28T06:59:47;8.30;99.90
49579;DHT22;35483;50.828;3.228;2024-02-28T07:02:14;8.30;99.90
49579;DHT22;35483;50.828;3.228;2024-02-28T07:04:40;8.20;99.90
49579;DHT22;35483;50.828;3.228;2024-02-28T07:07:06;8.30;99.90
49579;DHT22;35483;50.828;3.228;2024-02-28T07:09:32;8.30;99.90
49579;DHT22;35483;50.828;3.228;2024-02-28T07:11:58;8.30;99.90
49579;DHT22;35483;50.828;3.228;2024-02-28T07:14:24;8.30;99.90
49579;DHT22;35483;50.828;3.228;2024-02-28T07:16:50;8.30;99.90
49579;DHT22;35483;50.828;3.228;2024-02-28T07:19:17;8.40;99.90
49579;DHT22;35483;50.828;3.228;2024-02-28T07:21:43;8.40;99.90
49579;DHT22;35483;50.828;3.228;2024-02-28T07:24:09;8.40;99.90
49579;DHT22;35483;50.828;3.228;2024-02-28T07:26:35;8.50;99.90
49579;DHT22;35483;50.828;3.228;2024-02-28T07:29:01;8.50;99.90
49579;DHT22;35483;50.828;3.228;2024-02-28T07:31:27;8.60;99.90
49579;DHT22;35483;50.828;3.228;2024-02-28T07:33:52;8.60;99.90
49579;DHT22;35483;50.828;3.228;2024-02-28T07:36:20;8.70;99.90
49579;DHT22;35483;50.828;3.228;2024-02-28T07:38:45;8.70;99.90
49579;DHT22;35483;50.828;3.228;2024-02-28T07:41:12;8.80;99.90
49579;DHT22;35483;50.828;3.228;2024-02-28T07:43:41;8.80;99.90
49579;DHT22;35483;50.828;3.228;2024-02-28T07:46:07;8.90;99.90
49579;DHT22;35483;50.828;3.228;2024-02-28T07:48:34;8.90;99.90
49579;DHT22;35483;50.828;3.228;2024-02-28T07:51:00;9.00;99.90
49579;DHT22;35483;50.828;3.228;2024-02-28T07:53:26;9.10;99.90
49579;DHT22;35483;50.828;3.228;2024-02-28T07:55:52;9.00;99.90
49579;DHT22;35483;50.828;3.228;2024-02-28T07:58:18;9.00;99.90
49579;DHT22;35483;50.828;3.228;2024-02-28T08:00:44;9.00;99.90
49579;DHT22;35483;50.828;3.228;2024-02-28T08:03:10;9.00;99.90
49579;DHT22;35483;50.828;3.228;2024-02-28T08:05:36;9.00;99.90
49579;DHT22;35483;50.828;3.228;2024-02-28T08:08:07;9.00;99.90
49579;DHT22;35483;50.828;3.228;2024-02-28T08:10:32;9.00;99.90
49579;DHT22;35483;50.828;3.228;2024-02-28T08:12:58;9.10;99.90
49579;DHT22;35483;50.828;3.228;2024-02-28T08:15:24;9.10;99.90
49579;DHT22;35483;50.828;3.228;2024-02-28T08:17:50;9.20;99.90
49579;DHT22;35483;50.828;3.228;2024-02-28T08:20:15;9.20;99.90
49579;DHT22;35483;50.828;3.228;2024-02-28T08:22:42;9.20;99.90
49579;DHT22;35483;50.828;3.228;2024-02-28T08:25:08;9.20;99.90
49579;DHT22;35483;50.828;3.228;2024-02-28T08:27:37;9.20;99.90
49579;DHT22;35483;50.828;3.228;2024-02-28T08:30:04;9.20;99.90
49579;DHT22;35483;50.828;3.228;2024-02-28T08:32:33;9.20;99.90
49579;DHT22;35483;50.828;3.228;2024-02-28T08:34:59;9.20;99.90
49579;DHT22;35483;50.828;3.228;2024-02-28T08:37:25;9.10;99.90
49579;DHT22;35483;50.828;3.228;2024-02-28T08:39:53;9.10;99.90
49579;DHT22;35483;50.828;3.228;2024-02-28T08:42:22;9.20;99.90
49579;DHT22;35483;50.828;3.228;2024-02-28T08:44:48;9.20;99.90
49579;DHT22;35483;50.828;3.228;2024-02-28T08:47:13;9.30;99.90
49579;DHT22;35483;50.828;3.228;2024-02-28T08:49:39;9.40;99.90
49579;DHT22;35483;50.828;3.228;2024-02-28T08:52:05;9.50;99.90
49579;DHT22;35483;50.828;3.228;2024-02-28T08:54:31;9.60;99.90
49579;DHT22;35483;50.828;3.228;2024-02-28T08:56:57;9.70;99.90
49579;DHT22;35483;50.828;3.228;2024-02-28T08:59:23;9.70;99.90
49579;DHT22;35483;50.828;3.228;2024-02-28T09:01:49;9.70;99.90
49579;DHT22;35483;50.828;3.228;2024-02-28T09:04:14;9.60;99.90
49579;DHT22;35483;50.828;3.228;2024-02-28T09:06:41;9.60;99.90
49579;DHT22;35483;50.828;3.228;2024-02-28T09:09:06;9.50;99.90
49579;DHT22;35483;50.828;3.228;2024-02-28T09:11:32;9.40;99.90
49579;DHT22;35483;50.828;3.228;2024-02-28T09:13:58;9.40;99.90
49579;DHT22;35483;50.828;3.228;2024-02-28T09:16:24;9.40;99.90
49579;DHT22;35483;50.828;3.228;2024-02-28T09:18:50;9.40;99.90
49579;DHT22;35483;50.828;3.228;2024-02-28T09:21:15;9.50;99.90
49579;DHT22;35483;50.828;3.228;2024-02-28T09:23:41;9.60;99.90
49579;DHT22;35483;50.828;3.228;2024-02-28T09:26:07;9.70;99.90
49579;DHT22;35483;50.828;3.228;2024-02-28T09:28:33;9.80;99.90
49579;DHT22;35483;50.828;3.228;2024-02-28T09:30:59;9.90;99.90
49579;DHT22;35483;50.828;3.228;2024-02-28T09:33:25;9.90;99.90
49579;DHT22;35483;50.828;3.228;2024-02-28T09:35:50;9.90;99.90
49579;DHT22;35483;50.828;3.228;2024-02-28T09:38:16;10.00;99.90
49579;DHT22;35483;50.828;3.228;2024-02-28T09:40:46;9.90;99.90
49579;DHT22;35483;50.828;3.228;2024-02-28T09:43:19;10.00;99.90
49579;DHT22;35483;50.828;3.228;2024-02-28T09:45:47;10.00;99.90
49579;DHT22;35483;50.828;3.228;2024-02-28T09:48:15;9.80;99.90
49579;DHT22;35483;50.828;3.228;2024-02-28T09:50:42;9.80;99.90
49579;DHT22;35483;50.828;3.228;2024-02-28T09:53:08;9.80;99.90
49579;DHT22;35483;50.828;3.228;2024-02-28T09:55:34;9.80;99.90
49579;DHT22;35483;50.828;3.228;2024-02-28T09:58:00;9.90;99.90
49579;DHT22;35483;50.828;3.228;2024-02-28T10:00:26;9.90;99.90
49579;DHT22;35483;50.828;3.228;2024-02-28T10:02:54;9.80;99.90
49579;DHT22;35483;50.828;3.228;2024-02-28T10:05:21;9.80;99.90
49579;DHT22;35483;50.828;3.228;2024-02-28T10:07:46;9.80;99.90
49579;DHT22;35483;50.828;3.228;2024-02-28T10:10:15;9.80;99.90
49579;DHT22;35483;50.828;3.228;2024-02-28T10:12:43;9.80;99.90
49579;DHT22;35483;50.828;3.228;2024-02-28T10:15:10;9.90;99.90
49579;DHT22;35483;50.828;3.228;2024-02-28T10:17:36;9.90;99.90
49579;DHT22;35483;50.828;3.228;2024-02-28T10:20:02;9.90;99.90
49579;DHT22;35483;50.828;3.228;2024-02-28T10:22:35;9.90;99.90
49579;DHT22;35483;50.828;3.228;2024-02-28T10:25:01;9.90;99.90
49579;DHT22;35483;50.828;3.228;2024-02-28T10:27:27;10.00;99.90
49579;DHT22;35483;50.828;3.228;2024-02-28T10:29:52;10.00;99.90
49579;DHT22;35483;50.828;3.228;2024-02-28T10:32:18;10.00;99.90
49579;DHT22;35483;50.828;3.228;2024-02-28T10:34:44;10.10;99.90
49579;DHT22;35483;50.828;3.228;2024-02-28T10:37:12;10.20;99.90
49579;DHT22;35483;50.828;3.228;2024-02-28T10:39:38;10.30;99.90
49579;DHT22;35483;50.828;3.228;2024-02-28T10:42:04;10.40;99.90
49579;DHT22;35483;50.828;3.228;2024-02-28T10:44:31;10.50;99.90
49579;DHT22;35483;50.828;3.228;2024-02-28T10:47:00;10.60;99.90
49579;DHT22;35483;50.828;3.228;2024-02-28T10:49:26;10.70;99.90
49579;DHT22;35483;50.828;3.228;2024-02-28T10:51:53;10.70;99.90
49579;DHT22;35483;50.828;3.228;2024-02-28T10:54:24;10.80;99.90
49579;DHT22;35483;50.828;3.228;2024-02-28T10:56:51;10.80;99.90
49579;DHT22;35483;50.828;3.228;2024-02-28T10:59:21;10.80;99.90
49579;DHT22;35483;50.828;3.228;2024-02-28T11:01:48;11.00;99.90
49579;DHT22;35483;50.828;3.228;2024-02-28T11:04:16;11.10;99.90
49579;DHT22;35483;50.828;3.228;2024-02-28T11:06:54;11.10;99.90
49579;DHT22;35483;50.828;3.228;2024-02-28T11:09:21;11.20;99.90
49579;DHT22;35483;50.828;3.228;2024-02-28T11:11:49;11.30;99.90
49579;DHT22;35483;50.828;3.228;2024-02-28T11:14:16;11.40;99.90
49579;DHT22;35483;50.828;3.228;2024-02-28T11:16:42;11.50;99.90
49579;DHT22;35483;50.828;3.228;2024-02-28T11:19:20;11.50;99.90
49579;DHT22;35483;50.828;3.228;2024-02-28T11:21:54;11.70;99.90
49579;DHT22;35483;50.828;3.228;2024-02-28T11:24:25;11.70;99.90
49579;DHT22;35483;50.828;3.228;2024-02-28T11:26:52;11.70;99.90
49579;DHT22;35483;50.828;3.228;2024-02-28T11:29:24;11.70;99.90
49579;DHT22;35483;50.828;3.228;2024-02-28T11:31:51;11.70;99.90
49579;DHT22;35483;50.828;3.228;2024-02-28T11:34:18;11.80;99.90
49579;DHT22;35483;50.828;3.228;2024-02-28T11:36:47;11.80;99.90
49579;DHT22;35483;50.828;3.228;2024-02-28T11:39:13;11.90;99.90
49579;DHT22;35483;50.828;3.228;2024-02-28T11:41:39;11.90;99.90
49579;DHT22;35483;50.828;3.228;2024-02-28T11:44:05;11.90;99.90
49579;DHT22;35483;50.828;3.228;2024-02-28T11:46:32;12.00;99.90
49579;DHT22;35483;50.828;3.228;2024-02-28T11:48:58;12.10;99.90
49579;DHT22;35483;50.828;3.228;2024-02-28T11:51:24;12.20;99.90
49579;DHT22;35483;50.828;3.228;2024-02-28T11:53:50;12.20;99.90
49579;DHT22;35483;50.828;3.228;2024-02-28T11:56:16;12.10;99.90
49579;DHT22;35483;50.828;3.228;2024-02-28T11:58:51;12.10;99.90
49579;DHT22;35483;50.828;3.228;2024-02-28T12:01:17;12.10;99.90
49579;DHT22;35483;50.828;3.228;2024-02-28T12:03:45;12.20;99.90
49579;DHT22;35483;50.828;3.228;2024-02-28T12:06:11;12.20;99.90
49579;DHT22;35483;50.828;3.228;2024-02-28T12:08:37;12.20;99.90
49579;DHT22;35483;50.828;3.228;2024-02-28T12:11:07;12.30;99.90
49579;DHT22;35483;50.828;3.228;2024-02-28T12:13:34;12.30;99.90
49579;DHT22;35483;50.828;3.228;2024-02-28T12:16:00;12.30;99.90
49579;DHT22;35483;50.828;3.228;2024-02-28T12:18:26;12.20;99.90
49579;DHT22;35483;50.828;3.228;2024-02-28T12:20:54;12.10;99.90
49579;DHT22;35483;50.828;3.228;2024-02-28T12:23:19;12.20;99.90
49579;DHT22;35483;50.828;3.228;2024-02-28T12:25:45;12.10;99.90
49579;DHT22;35483;50.828;3.228;2024-02-28T12:28:11;12.20;99.90
49579;DHT22;35483;50.828;3.228;2024-02-28T12:30:42;12.40;99.90
49579;DHT22;35483;50.828;3.228;2024-02-28T12:33:08;12.50;99.90
49579;DHT22;35483;50.828;3.228;2024-02-28T12:35:34;12.60;99.90
49579;DHT22;35483;50.828;3.228;2024-02-28T12:38:00;12.60;99.90
49579;DHT22;35483;50.828;3.228;2024-02-28T12:40:25;12.50;99.90
49579;DHT22;35483;50.828;3.228;2024-02-28T12:42:51;12.60;99.90
49579;DHT22;35483;50.828;3.228;2024-02-28T12:45:17;12.70;99.90
49579;DHT22;35483;50.828;3.228;2024-02-28T12:47:43;12.70;99.90
49579;DHT22;35483;50.828;3.228;2024-02-28T12:50:09;12.70;99.90
49579;DHT22;35483;50.828;3.228;2024-02-28T12:52:37;12.80;99.90
49579;DHT22;35483;50.828;3.228;2024-02-28T12:55:03;12.80;99.90
49579;DHT22;35483;50.828;3.228;2024-02-28T12:57:30;12.90;99.90
49579;DHT22;35483;50.828;3.228;2024-02-28T12:59:55;12.90;99.90
49579;DHT22;35483;50.828;3.228;2024-02-28T13:02:21;13.00;99.90
49579;DHT22;35483;50.828;3.228;2024-02-28T13:04:47;13.00;99.90
49579;DHT22;35483;50.828;3.228;2024-02-28T13:07:14;13.00;99.90
49579;DHT22;35483;50.828;3.228;2024-02-28T13:09:40;13.00;99.90
49579;DHT22;35483;50.828;3.228;2024-02-28T13:12:07;13.00;99.90
49579;DHT22;35483;50.828;3.228;2024-02-28T13:14:33;13.10;99.90
49579;DHT22;35483;50.828;3.228;2024-02-28T13:16:59;13.10;99.90
49579;DHT22;35483;50.828;3.228;2024-02-28T13:19:25;13.10;99.90
49579;DHT22;35483;50.828;3.228;2024-02-28T13:21:50;13.20;99.90
49579;DHT22;35483;50.828;3.228;2024-02-28T13:24:16;13.30;99.90
49579;DHT22;35483;50.828;3.228;2024-02-28T13:26:42;13.20;99.90
49579;DHT22;35483;50.828;3.228;2024-02-28T13:29:08;13.10;99.90
49579;DHT22;35483;50.828;3.228;2024-02-28T13:31:34;13.10;99.90
49579;DHT22;35483;50.828;3.228;2024-02-28T13:34:00;13.10;99.90
49579;DHT22;35483;50.828;3.228;2024-02-28T13:36:28;13.00;99.90
49579;DHT22;35483;50.828;3.228;2024-02-28T13:38:54;12.90;99.90
49579;DHT22;35483;50.828;3.228;2024-02-28T13:41:19;12.90;99.90
49579;DHT22;35483;50.828;3.228;2024-02-28T13:43:45;12.80;99.90
49579;DHT22;35483;50.828;3.228;2024-02-28T13:46:11;12.80;99.90
49579;DHT22;35483;50.828;3.228;2024-02-28T13:48:37;12.90;99.90
49579;DHT22;35483;50.828;3.228;2024-02-28T13:51:05;12.90;99.90
49579;DHT22;35483;50.828;3.228;2024-02-28T13:53:30;12.80;99.90
49579;DHT22;35483;50.828;3.228;2024-02-28T13:55:56;12.70;99.90
49579;DHT22;35483;50.828;3.228;2024-02-28T13:58:23;12.60;99.90
49579;DHT22;35483;50.828;3.228;2024-02-28T14:00:48;12.60;99.90
49579;DHT22;35483;50.828;3.228;2024-02-28T14:03:14;12.60;99.90
49579;DHT22;35483;50.828;3.228;2024-02-28T14:05:40;12.50;99.90
49579;DHT22;35483;50.828;3.228;2024-02-28T14:08:06;12.40;99.90
49579;DHT22;35483;50.828;3.228;2024-02-28T14:10:37;12.40;99.90
49579;DHT22;35483;50.828;3.228;2024-02-28T14:13:03;12.30;99.90
49579;DHT22;35483;50.828;3.228;2024-02-28T14:15:29;12.20;99.90
49579;DHT22;35483;50.828;3.228;2024-02-28T14:17:54;12.20;99.90
49579;DHT22;35483;50.828;3.228;2024-02-28T14:20:20;12.20;99.90
49579;DHT22;35483;50.828;3.228;2024-02-28T14:22:46;12.20;99.90
49579;DHT22;35483;50.828;3.228;2024-02-28T14:25:13;12.20;99.90
49579;DHT22;35483;50.828;3.228;2024-02-28T14:27:39;12.20;99.90
49579;DHT22;35483;50.828;3.228;2024-02-28T14:30:07;12.20;99.90
49579;DHT22;35483;50.828;3.228;2024-02-28T14:32:37;12.20;99.90
49579;DHT22;35483;50.828;3.228;2024-02-28T14:35:07;12.20;99.90
49579;DHT22;35483;50.828;3.228;2024-02-28T14:37:37;12.10;99.90
49579;DHT22;35483;50.828;3.228;2024-02-28T14:40:05;12.20;99.90
49579;DHT22;35483;50.828;3.228;2024-02-28T14:42:44;12.10;99.90
49579;DHT22;35483;50.828;3.228;2024-02-28T14:45:13;12.10;99.90
49579;DHT22;35483;50.828;3.228;2024-02-28T14:47:43;12.10;99.90
49579;DHT22;35483;50.828;3.228;2024-02-28T14:50:09;12.10;99.90
49579;DHT22;35483;50.828;3.228;2024-02-28T14:52:39;12.10;99.90
49579;DHT22;35483;50.828;3.228;2024-02-28T14:55:07;12.10;99.90
49579;DHT22;35483;50.828;3.228;2024-02-28T14:57:34;12.00;99.90
49579;DHT22;35483;50.828;3.228;2024-02-28T15:00:00;12.00;99.90
49579;DHT22;35483;50.828;3.228;2024-02-28T15:02:26;12.00;99.90
49579;DHT22;35483;50.828;3.228;2024-02-28T15:04:52;11.90;99.90
49579;DHT22;35483;50.828;3.228;2024-02-28T15:07:18;11.80;99.90
49579;DHT22;35483;50.828;3.228;2024-02-28T15:09:43;11.80;99.90
49579;DHT22;35483;50.828;3.228;2024-02-28T15:12:09;11.80;99.90
49579;DHT22;35483;50.828;3.228;2024-02-28T15:14:35;11.70;99.90
49579;DHT22;35483;50.828;3.228;2024-02-28T15:17:01;11.60;99.90
49579;DHT22;35483;50.828;3.228;2024-02-28T15:19:27;11.60;99.90
49579;DHT22;35483;50.828;3.228;2024-02-28T15:21:53;11.60;99.90
49579;DHT22;35483;50.828;3.228;2024-02-28T15:24:21;11.60;99.90
49579;DHT22;35483;50.828;3.228;2024-02-28T15:26:47;11.60;99.90
49579;DHT22;35483;50.828;3.228;2024-02-28T15:29:13;11.70;99.90
49579;DHT22;35483;50.828;3.228;2024-02-28T15:31:39;11.70;99.90
49579;DHT22;35483;50.828;3.228;2024-02-28T15:34:05;11.70;99.90